KHRJ

Harnett Regional Jetport Airport

Erwin, North Carolina, USA
METAR KHRJ 180655Z AUTO 00000KT 4SM BR OVC004 08/08 A3011 RMK AO2 T00750075
Observed Flight Rules
Feb-18 @ 06:55 UTC (18 minutes ago) Instrument Flight Rules
Wind Visibility Clouds Conditions
Calm 4 miles
  • Overcast at 400' AGL
  • Mist
Temperatures Readings
Current 8°C / 46°F
Dewpoint 8°C / 46°F
Humidity 100%
Altimeter 30.11" Hg
Pressure 1020 hPa
Elevation 60
METAR KHRJ 180655Z AUTO 00000KT 4SM BR OVC004 08/08 A3011 RMK AO2 T00750075
Observed Flight Rules
Feb-18 @ 06:55 UTC
(18 minutes ago)
LIFR
Wind Visibility
Calm 4 miles
Clouds
  • Overcast at 400' AGL
Conditions
  • Mist
Temperature Dewpoint
8°C / 46°F 8°C / 46°F
Humidity Altimeter Pressure
100% 30.11" Hg 1020 hPa